Wetterstation Vordersexau
Wetterdaten: Woche 09.07.12 - 15.07.12 (KW28)
Datum Zeit Temp. A. Feuchte A. Luftdruck Regen Wind Richtung Taupunkt Windchill Windben
09.07.2012 00:00 18,8 C 72 % 1013,1 hPa 0,0 l/m 0,0 km/h S-SW 13,6 C 18,8 C 0,0 km/h
09.07.2012 01:00 17,4 C 76 % 1013,3 hPa 0,0 l/m 0,0 km/h S-SW 13,1 C 17,4 C 0,0 km/h
09.07.2012 02:00 17,3 C 80 % 1013,5 hPa 0,0 l/m 0,0 km/h N 13,8 C 17,3 C 0,0 km/h
09.07.2012 03:00 16,8 C 81 % 1013,6 hPa 0,0 l/m 0,0 km/h N-NO 13,5 C 16,8 C 0,0 km/h
09.07.2012 04:00 15,1 C 83 % 1013,5 hPa 0,0 l/m 0,0 km/h N-NO 12,2 C 15,1 C 0,0 km/h
09.07.2012 05:00 13,9 C 83 % 1013,6 hPa 0,0 l/m 1,3 km/h SO 11,1 C 13,9 C 0,7 km/h
09.07.2012 06:00 13,3 C 82 % 1013,9 hPa 0,0 l/m 0,0 km/h SO 10,3 C 13,3 C 0,0 km/h
09.07.2012 07:00 14,9 C 80 % 1013,7 hPa 0,0 l/m 0,0 km/h SO 11,5 C 14,9 C 0,0 km/h
09.07.2012 08:00 23,1 C 64 % 1013,5 hPa 0,0 l/m 8,4 km/h O-NO 15,9 C 22,5 C 4,7 km/h
09.07.2012 09:00 29,1 C 44 % 1013,3 hPa 0,0 l/m 0,0 km/h W 15,6 C 29,1 C 0,0 km/h
09.07.2012 10:00 23,5 C 58 % 1013,3 hPa 0,0 l/m 3,2 km/h W-SW 14,7 C 23,5 C 1,8 km/h
09.07.2012 11:00 24,6 C 59 % 1013,3 hPa 0,0 l/m 12,3 km/h W-SW 16,0 C 23,3 C 6,8 km/h
09.07.2012 12:00 25,1 C 54 % 1013,2 hPa 0,0 l/m 0,0 km/h W-SW 15,1 C 25,1 C 0,0 km/h
09.07.2012 13:00 25,1 C 53 % 1013,0 hPa 0,0 l/m 3,2 km/h W-NW 14,8 C 25,1 C 1,8 km/h
09.07.2012 14:00 26,1 C 52 % 1012,8 hPa 0,0 l/m 8,4 km/h SW 15,5 C 25,7 C 4,7 km/h
09.07.2012 15:00 26,9 C 49 % 1012,4 hPa 0,0 l/m 11,7 km/h W-SW 15,3 C 26,0 C 6,5 km/h
09.07.2012 16:00 31,2 C 41 % 1012,0 hPa 0,0 l/m 7,1 km/h W-SW 16,4 C 31,2 C 4,0 km/h
09.07.2012 17:00 29,9 C 42 % 1011,9 hPa 0,0 l/m 3,9 km/h W-SW 15,6 C 29,9 C 2,2 km/h
09.07.2012 18:00 26,3 C 50 % 1011,5 hPa 0,0 l/m 0,0 km/h SO 15,0 C 26,3 C 0,0 km/h
09.07.2012 19:00 24,6 C 56 % 1011,3 hPa 0,0 l/m 0,0 km/h SO 15,2 C 24,6 C 0,0 km/h
09.07.2012 20:00 23,1 C 61 % 1011,4 hPa 0,0 l/m 0,0 km/h W-SW 15,2 C 23,1 C 0,0 km/h
09.07.2012 21:00 21,6 C 61 % 1011,5 hPa 0,0 l/m 5,8 km/h N-NO 13,7 C 21,6 C 3,2 km/h
09.07.2012 22:00 20,0 C 68 % 1012,4 hPa 0,0 l/m 0,0 km/h O-SO 13,9 C 20,0 C 0,0 km/h
09.07.2012 23:00 17,4 C 74 % 1012,8 hPa 0,0 l/m 0,0 km/h SO 12,7 C 17,4 C 0,0 km/h
10.07.2012 00:00 15,1 C 80 % 1013,1 hPa 0,0 l/m 0,0 km/h O-NO 11,7 C 15,1 C 0,0 km/h
10.07.2012 01:00 14,3 C 83 % 1013,0 hPa 0,0 l/m 0,0 km/h NO 11,5 C 14,3 C 0,0 km/h
10.07.2012 02:00 14,5 C 83 % 1013,1 hPa 0,0 l/m 0,0 km/h O 11,6 C 14,5 C 0,0 km/h
10.07.2012 03:00 13,9 C 83 % 1013,1 hPa 0,0 l/m 0,0 km/h SO 11,1 C 13,9 C 0,0 km/h
10.07.2012 04:00 13,9 C 83 % 1012,9 hPa 0,0 l/m 0,0 km/h SO 11,1 C 13,9 C 0,0 km/h
10.07.2012 05:00 13,4 C 83 % 1012,9 hPa 0,0 l/m 0,0 km/h O 10,6 C 13,4 C 0,0 km/h
10.07.2012 06:00 12,9 C 82 % 1013,0 hPa 0,0 l/m 0,0 km/h SO 9,9 C 12,9 C 0,0 km/h
10.07.2012 07:00 15,1 C 77 % 1013,5 hPa 0,0 l/m 0,0 km/h SO 11,1 C 15,1 C 0,0 km/h
10.07.2012 08:00 23,6 C 68 % 1013,3 hPa 0,0 l/m 0,0 km/h N-NO 17,3 C 23,6 C 0,0 km/h
10.07.2012 09:00 28,7 C 49 % 1012,8 hPa 0,0 l/m 0,0 km/h W 16,9 C 28,7 C 0,0 km/h
10.07.2012 10:00 27,3 C 54 % 1012,9 hPa 0,0 l/m 0,0 km/h W 17,2 C 27,3 C 0,0 km/h
10.07.2012 11:00 30,2 C 44 % 1012,8 hPa 0,0 l/m 4,5 km/h S-SW 16,6 C 30,2 C 2,5 km/h
10.07.2012 12:00 28,4 C 44 % 1012,4 hPa 0,0 l/m 0,0 km/h W-SW 14,9 C 28,4 C 0,0 km/h
10.07.2012 13:00 28,4 C 44 % 1012,1 hPa 0,0 l/m 6,5 km/h W-NW 14,9 C 28,4 C 3,6 km/h
10.07.2012 14:00 28,6 C 45 % 1011,3 hPa 0,0 l/m 16,2 km/h S-SW 15,5 C 27,6 C 9,0 km/h
10.07.2012 15:00 29,5 C 42 % 1010,9 hPa 0,0 l/m 27,9 km/h W 15,2 C 28,1 C 15,5 km/h
10.07.2012 16:00 30,7 C 40 % 1010,4 hPa 0,0 l/m 17,5 km/h SW 15,5 C 30,1 C 9,7 km/h
10.07.2012 17:00 32,0 C 36 % 1010,3 hPa 0,0 l/m 13,0 km/h W 15,0 C 31,8 C 7,2 km/h
10.07.2012 18:00 27,6 C 40 % 1009,8 hPa 0,0 l/m 12,3 km/h NW 12,8 C 26,7 C 6,8 km/h
10.07.2012 19:00 22,6 C 62 % 1011,2 hPa 0,0 l/m 0,0 km/h SW 14,9 C 22,6 C 0,0 km/h
10.07.2012 20:00 19,4 C 80 % 1012,2 hPa 0,4 l/m 21,4 km/h N 15,9 C 15,2 C 11,9 km/h
10.07.2012 21:00 17,8 C 83 % 1012,0 hPa 2,5 l/m 0,0 km/h SO 14,9 C 17,8 C 0,0 km/h
10.07.2012 22:00 17,5 C 82 % 1012,5 hPa 0,0 l/m 5,8 km/h SO 14,4 C 17,5 C 3,2 km/h
10.07.2012 23:00 17,1 C 82 % 1012,8 hPa 0,0 l/m 0,0 km/h N-NO 14,0 C 17,1 C 0,0 km/h
11.07.2012 00:00 16,9 C 82 % 1012,7 hPa 0,0 l/m 0,0 km/h N-NO 13,8 C 16,9 C 0,0 km/h
11.07.2012 01:00 17,1 C 80 % 1012,8 hPa 2,1 l/m 0,0 km/h W 13,6 C 17,1 C 0,0 km/h
11.07.2012 02:00 16,7 C 77 % 1012,9 hPa 1,8 l/m 0,0 km/h W 12,6 C 16,7 C 0,0 km/h
11.07.2012 03:00 17,0 C 77 % 1013,1 hPa 0,0 l/m 1,3 km/h NO 12,9 C 17,0 C 0,7 km/h
11.07.2012 04:00 16,6 C 79 % 1013,7 hPa 0,0 l/m 0,0 km/h SO 12,9 C 16,6 C 0,0 km/h
11.07.2012 05:00 15,9 C 80 % 1014,0 hPa 0,0 l/m 0,0 km/h NO 12,5 C 15,9 C 0,0 km/h
11.07.2012 06:00 15,6 C 80 % 1014,2 hPa 0,0 l/m 0,0 km/h W-SW 12,2 C 15,6 C 0,0 km/h
11.07.2012 07:00 16,4 C 82 % 1014,5 hPa 0,0 l/m 0,0 km/h W 13,3 C 16,4 C 0,0 km/h
11.07.2012 08:00 17,9 C 83 % 1014,4 hPa 0,0 l/m 0,0 km/h SW 15,0 C 17,9 C 0,0 km/h
11.07.2012 09:00 18,6 C 77 % 1014,8 hPa 0,0 l/m 1,3 km/h SW 14,5 C 18,6 C 0,7 km/h
11.07.2012 10:00 19,6 C 70 % 1014,7 hPa 0,0 l/m 5,8 km/h W 14,0 C 19,6 C 3,2 km/h
11.07.2012 11:00 20,6 C 66 % 1014,5 hPa 0,0 l/m 6,5 km/h S-SW 14,0 C 20,6 C 3,6 km/h
11.07.2012 12:00 21,1 C 63 % 1014,3 hPa 0,0 l/m 16,2 km/h W-SW 13,8 C 18,3 C 9,0 km/h
11.07.2012 13:00 23,8 C 53 % 1014,0 hPa 0,0 l/m 14,3 km/h S 13,6 C 22,0 C 7,9 km/h
11.07.2012 14:00 20,3 C 54 % 1014,5 hPa 0,0 l/m 18,8 km/h W-SW 10,7 C 16,8 C 10,4 km/h
11.07.2012 15:00 22,3 C 49 % 1014,1 hPa 0,0 l/m 32,4 km/h W-NW 11,1 C 17,7 C 18,0 km/h
11.07.2012 16:00 24,1 C 45 % 1014,0 hPa 0,0 l/m 11,7 km/h W-SW 11,4 C 22,8 C 6,5 km/h
11.07.2012 17:00 22,3 C 43 % 1014,0 hPa 0,0 l/m 13,0 km/h W-SW 9,1 C 20,5 C 7,2 km/h
11.07.2012 18:00 19,8 C 52 % 1014,0 hPa 0,0 l/m 5,8 km/h W-SW 9,7 C 19,8 C 3,2 km/h
11.07.2012 19:00 18,9 C 57 % 1014,3 hPa 0,0 l/m 2,6 km/h W-NW 10,2 C 18,9 C 1,4 km/h
11.07.2012 20:00 17,9 C 61 % 1014,4 hPa 0,0 l/m 0,0 km/h W-SW 10,3 C 17,9 C 0,0 km/h
11.07.2012 21:00 17,1 C 64 % 1014,7 hPa 0,0 l/m 0,0 km/h W 10,2 C 17,1 C 0,0 km/h
11.07.2012 22:00 16,7 C 67 % 1015,0 hPa 0,0 l/m 0,6 km/h W-SW 10,5 C 16,7 C 0,4 km/h
11.07.2012 23:00 16,8 C 68 % 1015,2 hPa 0,0 l/m 1,3 km/h W 10,9 C 16,8 C 0,7 km/h
12.07.2012 00:00 16,8 C 67 % 1015,9 hPa 0,0 l/m 5,8 km/h S-SW 10,6 C 16,8 C 3,2 km/h
12.07.2012 01:00 13,9 C 79 % 1016,3 hPa 0,0 l/m 0,0 km/h S 10,3 C 13,9 C 0,0 km/h
12.07.2012 02:00 13,9 C 82 % 1016,2 hPa 0,0 l/m 0,0 km/h NO 10,9 C 13,9 C 0,0 km/h
12.07.2012 03:00 13,8 C 83 % 1016,0 hPa 0,0 l/m 0,0 km/h W 11,0 C 13,8 C 0,0 km/h
12.07.2012 04:00 14,3 C 82 % 1016,0 hPa 0,0 l/m 1,3 km/h SW 11,3 C 14,3 C 0,7 km/h
12.07.2012 05:00 13,8 C 80 % 1015,9 hPa 0,0 l/m 0,0 km/h W 10,4 C 13,8 C 0,0 km/h
12.07.2012 06:00 13,9 C 80 % 1016,2 hPa 0,0 l/m 0,0 km/h W-SW 10,5 C 13,9 C 0,0 km/h
12.07.2012 07:00 14,0 C 81 % 1016,5 hPa 0,0 l/m 20,7 km/h S-SW 10,8 C 8,3 C 11,5 km/h
12.07.2012 08:00 14,7 C 79 % 1016,5 hPa 0,0 l/m 7,8 km/h W-SW 11,1 C 13,9 C 4,3 km/h
12.07.2012 09:00 16,8 C 72 % 1016,8 hPa 0,0 l/m 9,7 km/h SW 11,7 C 15,2 C 5,4 km/h
12.07.2012 10:00 18,8 C 66 % 1016,7 hPa 0,0 l/m 15,6 km/h S-SW 12,3 C 15,6 C 8,6 km/h
12.07.2012 11:00 18,2 C 65 % 1016,5 hPa 0,0 l/m 10,4 km/h NW 11,5 C 16,5 C 5,8 km/h
12.07.2012 12:00 18,8 C 64 % 1016,9 hPa 0,0 l/m 9,1 km/h W 11,8 C 17,6 C 5,0 km/h
12.07.2012 13:00 18,3 C 66 % 1017,2 hPa 0,0 l/m 22,7 km/h W-SW 11,8 C 13,5 C 12,6 km/h
12.07.2012 14:00 20,9 C 61 % 1016,6 hPa 0,0 l/m 33,0 km/h W-SW 13,1 C 15,7 C 18,4 km/h
12.07.2012 15:00 21,1 C 59 % 1015,9 hPa 0,0 l/m 15,6 km/h NW 12,8 C 18,5 C 8,6 km/h
12.07.2012 16:00 23,8 C 46 % 1015,9 hPa 0,0 l/m 22,0 km/h S 11,5 C 20,9 C 12,2 km/h
12.07.2012 17:00 25,7 C 42 % 1015,8 hPa 0,0 l/m 18,1 km/h W-NW 11,8 C 23,8 C 10,1 km/h
12.07.2012 18:00 24,8 C 43 % 1015,7 hPa 0,0 l/m 18,1 km/h W 11,4 C 22,6 C 10,1 km/h
12.07.2012 19:00 23,5 C 46 % 1015,1 hPa 0,0 l/m 8,4 km/h W-SW 11,2 C 22,9 C 4,7 km/h
12.07.2012 20:00 18,4 C 57 % 1014,9 hPa 0,0 l/m 7,8 km/h W 9,7 C 17,8 C 4,3 km/h
12.07.2012 21:00 15,8 C 66 % 1015,1 hPa 0,0 l/m 0,0 km/h O-SO 9,5 C 15,8 C 0,0 km/h
12.07.2012 22:00 14,4 C 73 % 1015,1 hPa 0,0 l/m 0,0 km/h NO 9,6 C 14,4 C 0,0 km/h
12.07.2012 23:00 13,6 C 78 % 1014,8 hPa 0,0 l/m 0,0 km/h NO 9,8 C 13,6 C 0,0 km/h
13.07.2012 00:00 13,6 C 80 % 1014,2 hPa 0,0 l/m 0,0 km/h NO 10,2 C 13,6 C 0,0 km/h
13.07.2012 01:00 13,8 C 80 % 1013,7 hPa 0,0 l/m 0,0 km/h O-NO 10,4 C 13,8 C 0,0 km/h
13.07.2012 02:00 13,7 C 82 % 1013,0 hPa 0,0 l/m 0,0 km/h O-NO 10,7 C 13,7 C 0,0 km/h
13.07.2012 03:00 13,3 C 83 % 1012,3 hPa 0,0 l/m 0,0 km/h O-SO 10,5 C 13,3 C 0,0 km/h
13.07.2012 04:00 13,3 C 83 % 1012,0 hPa 0,0 l/m 0,0 km/h NO 10,5 C 13,3 C 0,0 km/h
13.07.2012 05:00 13,5 C 84 % 1011,3 hPa 0,0 l/m 0,0 km/h S-SO 10,8 C 13,5 C 0,0 km/h
13.07.2012 06:00 13,4 C 83 % 1011,3 hPa 0,4 l/m 0,0 km/h SO 10,6 C 13,4 C 0,0 km/h
13.07.2012 07:00 13,6 C 83 % 1011,1 hPa 0,4 l/m 0,0 km/h SO 10,8 C 13,6 C 0,0 km/h
13.07.2012 08:00 14,4 C 83 % 1010,8 hPa 0,0 l/m 0,0 km/h S 11,5 C 14,4 C 0,0 km/h
13.07.2012 09:00 15,9 C 83 % 1010,5 hPa 0,0 l/m 0,0 km/h SW 13,0 C 15,9 C 0,0 km/h
13.07.2012 10:00 18,1 C 71 % 1010,4 hPa 0,0 l/m 21,4 km/h W-SW 12,8 C 13,5 C 11,9 km/h
13.07.2012 11:00 15,5 C 78 % 1010,5 hPa 0,0 l/m 5,8 km/h W-SW 11,7 C 15,5 C 3,2 km/h
13.07.2012 12:00 20,8 C 70 % 1010,0 hPa 0,4 l/m 10,4 km/h W 15,1 C 19,4 C 5,8 km/h
13.07.2012 13:00 21,9 C 63 % 1009,1 hPa 0,0 l/m 14,9 km/h SW 14,5 C 19,6 C 8,3 km/h
13.07.2012 14:00 22,8 C 61 % 1008,5 hPa 0,0 l/m 18,1 km/h S-SW 14,9 C 20,1 C 10,1 km/h
13.07.2012 15:00 24,6 C 53 % 1007,5 hPa 0,0 l/m 7,1 km/h W-SW 14,4 C 24,4 C 4,0 km/h
13.07.2012 16:00 23,1 C 57 % 1006,8 hPa 0,0 l/m 5,8 km/h W 14,1 C 23,1 C 3,2 km/h
13.07.2012 17:00 20,3 C 68 % 1006,8 hPa 0,0 l/m 0,0 km/h S-SO 14,2 C 20,3 C 0,0 km/h
13.07.2012 18:00 18,6 C 74 % 1006,4 hPa 0,4 l/m 0,0 km/h S-SO 13,9 C 18,6 C 0,0 km/h
13.07.2012 19:00 17,9 C 81 % 1005,7 hPa 0,0 l/m 0,0 km/h S 14,6 C 17,9 C 0,0 km/h
13.07.2012 20:00 16,9 C 82 % 1005,6 hPa 0,0 l/m 0,0 km/h S-SO 13,8 C 16,9 C 0,0 km/h
13.07.2012 21:00 15,8 C 83 % 1005,5 hPa 1,1 l/m 1,9 km/h O-SO 12,9 C 15,8 C 1,1 km/h
13.07.2012 22:00 15,6 C 82 % 1005,3 hPa 0,7 l/m 0,0 km/h S-SW 12,5 C 15,6 C 0,0 km/h
13.07.2012 23:00 15,6 C 80 % 1005,6 hPa 1,4 l/m 0,0 km/h S-SW 12,2 C 15,6 C 0,0 km/h
14.07.2012 00:00 15,4 C 79 % 1004,5 hPa 0,4 l/m 0,0 km/h S-SW 11,8 C 15,4 C 0,0 km/h
14.07.2012 01:00 15,4 C 78 % 1003,8 hPa 0,0 l/m 0,0 km/h W-SW 11,6 C 15,4 C 0,0 km/h
14.07.2012 02:00 16,6 C 80 % 1003,8 hPa 0,0 l/m 24,0 km/h S-SO 13,1 C 11,0 C 13,3 km/h
14.07.2012 03:00 17,1 C 83 % 1003,9 hPa 0,0 l/m 14,3 km/h S-SO 14,2 C 13,9 C 7,9 km/h
14.07.2012 04:00 17,6 C 80 % 1004,2 hPa 0,0 l/m 22,0 km/h W 14,1 C 12,7 C 12,2 km/h
14.07.2012 05:00 17,1 C 78 % 1004,6 hPa 0,0 l/m 27,2 km/h SW 13,2 C 11,1 C 15,1 km/h
14.07.2012 06:00 17,1 C 77 % 1004,9 hPa 0,0 l/m 22,0 km/h SW 13,0 C 12,0 C 12,2 km/h
14.07.2012 07:00 17,9 C 72 % 1005,4 hPa 0,0 l/m 24,0 km/h SW 12,8 C 12,7 C 13,3 km/h
14.07.2012 08:00 17,8 C 72 % 1006,6 hPa 0,0 l/m 41,5 km/h W-SW 12,7 C 10,3 C 23,0 km/h
14.07.2012 09:00 20,5 C 65 % 1007,1 hPa 0,0 l/m 17,5 km/h S-SW 13,7 C 17,3 C 9,7 km/h
14.07.2012 10:00 19,1 C 67 % 1008,2 hPa 0,0 l/m 28,5 km/h SW 12,8 C 13,7 C 15,8 km/h
14.07.2012 11:00 22,1 C 60 % 1008,8 hPa 0,0 l/m 24,0 km/h W-SW 14,0 C 18,4 C 13,3 km/h
14.07.2012 12:00 20,9 C 64 % 1009,8 hPa 0,0 l/m 23,3 km/h SW 13,8 C 16,8 C 13,0 km/h
14.07.2012 13:00 22,5 C 55 % 1010,2 hPa 0,0 l/m 15,6 km/h W-SW 13,0 C 20,2 C 8,6 km/h
14.07.2012 14:00 21,6 C 53 % 1010,2 hPa 0,0 l/m 12,3 km/h W 11,6 C 19,8 C 6,8 km/h
14.07.2012 15:00 22,1 C 55 % 1010,2 hPa 0,0 l/m 6,5 km/h W-NW 12,6 C 22,1 C 3,6 km/h
14.07.2012 16:00 23,2 C 52 % 1010,4 hPa 0,0 l/m 16,2 km/h W-SW 12,8 C 20,9 C 9,0 km/h
14.07.2012 17:00 25,6 C 45 % 1010,0 hPa 0,0 l/m 18,8 km/h W-NW 12,8 C 23,6 C 10,4 km/h
14.07.2012 18:00 21,8 C 52 % 1010,2 hPa 0,0 l/m 1,9 km/h W 11,5 C 21,8 C 1,1 km/h
14.07.2012 19:00 22,1 C 51 % 1009,7 hPa 0,0 l/m 7,1 km/h W 11,5 C 21,9 C 4,0 km/h
14.07.2012 20:00 19,4 C 59 % 1009,7 hPa 0,0 l/m 1,9 km/h W 11,2 C 19,4 C 1,1 km/h
14.07.2012 21:00 16,2 C 71 % 1009,8 hPa 0,0 l/m 0,0 km/h SW 10,9 C 16,2 C 0,0 km/h
14.07.2012 22:00 15,6 C 75 % 1010,7 hPa 0,0 l/m 1,9 km/h N-NO 11,2 C 15,6 C 1,1 km/h
14.07.2012 23:00 16,1 C 75 % 1011,0 hPa 0,0 l/m 5,8 km/h W-SW 11,7 C 16,1 C 3,2 km/h
15.07.2012 00:00 14,7 C 79 % 1011,2 hPa 0,0 l/m 0,0 km/h SW 11,1 C 14,7 C 0,0 km/h
15.07.2012 01:00 15,6 C 76 % 1011,7 hPa 0,0 l/m 13,6 km/h SW 11,4 C 12,4 C 7,6 km/h
15.07.2012 02:00 15,9 C 71 % 1011,7 hPa 0,0 l/m 9,1 km/h W-SW 10,6 C 14,5 C 5,0 km/h
15.07.2012 03:00 15,4 C 72 % 1011,9 hPa 0,0 l/m 19,4 km/h W 10,4 C 10,4 C 10,8 km/h
15.07.2012 04:00 15,3 C 73 % 1012,0 hPa 0,0 l/m 10,4 km/h W 10,5 C 13,3 C 5,8 km/h
15.07.2012 05:00 14,5 C 77 % 1012,1 hPa 0,0 l/m 0,0 km/h W 10,5 C 14,5 C 0,0 km/h
15.07.2012 06:00 14,7 C 77 % 1012,7 hPa 0,0 l/m 6,5 km/h W-SW 10,7 C 14,7 C 3,6 km/h
15.07.2012 07:00 14,9 C 77 % 1012,9 hPa 0,0 l/m 17,5 km/h W-SW 10,9 C 10,3 C 9,7 km/h
15.07.2012 08:00 14,9 C 80 % 1013,3 hPa 0,0 l/m 1,9 km/h W-NW 11,5 C 14,9 C 1,1 km/h
15.07.2012 09:00 17,4 C 75 % 1013,8 hPa 0,0 l/m 11,7 km/h W-SW 12,9 C 15,1 C 6,5 km/h
15.07.2012 10:00 17,7 C 68 % 1014,1 hPa 0,0 l/m 21,4 km/h SW 11,7 C 12,9 C 11,9 km/h
15.07.2012 11:00 17,9 C 70 % 1014,2 hPa 0,0 l/m 5,8 km/h W-SW 12,3 C 17,9 C 3,2 km/h
15.07.2012 12:00 18,3 C 74 % 1014,6 hPa 0,4 l/m 3,2 km/h W 13,6 C 18,3 C 1,8 km/h
15.07.2012 13:00 17,0 C 71 % 1015,2 hPa 0,0 l/m 7,8 km/h W 11,7 C 16,3 C 4,3 km/h
15.07.2012 14:00 17,0 C 72 % 1015,7 hPa 0,0 l/m 0,0 km/h S-SO 11,9 C 17,0 C 0,0 km/h
15.07.2012 15:00 22,3 C 58 % 1015,2 hPa 0,0 l/m 18,8 km/h N-NW 13,6 C 19,4 C 10,4 km/h
15.07.2012 16:00 16,3 C 70 % 1016,2 hPa 0,0 l/m 0,0 km/h S-SO 10,8 C 16,3 C 0,0 km/h
15.07.2012 17:00 15,9 C 77 % 1016,5 hPa 1,8 l/m 8,4 km/h SW 11,9 C 14,8 C 4,7 km/h
15.07.2012 18:00 18,3 C 72 % 1017,1 hPa 0,0 l/m 0,0 km/h SW 13,2 C 18,3 C 0,0 km/h
15.07.2012 19:00 15,9 C 72 % 1017,7 hPa 0,0 l/m 3,2 km/h S-SO 10,9 C 15,9 C 1,8 km/h
15.07.2012 20:00 12,4 C 83 % 1019,0 hPa 1,1 l/m 7,1 km/h SO 9,6 C 11,9 C 4,0 km/h
15.07.2012 21:00 12,4 C 83 % 1019,8 hPa 0,0 l/m 0,0 km/h NO 9,6 C 12,4 C 0,0 km/h
15.07.2012 22:00 12,4 C 83 % 1020,6 hPa 0,0 l/m 0,0 km/h NO 9,6 C 12,4 C 0,0 km/h
15.07.2012 23:00 12,0 C 83 % 1021,2 hPa 0,0 l/m 0,0 km/h NO 9,2 C 12,0 C 0,0 km/h
Min-Datum _ 15.07.12 10.07.12 14.07.12 - 09.07.12 - 11.07.12 12.07.12 09.07.12
_ Min-Zeit 23:19 17:19 01:19 - 00:19 - 17:19 07:19 00:19
Minimum _ 12,0 C 36 % 1003,8 hPa - 0,0 km/h - 9,1 C 8,3 C 0,0 km/h
Max-Datum _ 10.07.12 13.07.12 15.07.12 10.07.12 14.07.12 - 10.07.12 10.07.12 14.07.12
_ Max-Zeit 17:19 05:19 23:19 21:19 08:19 - 08:19 17:19 08:19
Maximum _ 32,0 C 84 % 1021,2 hPa 2,5 l/m 41,5 km/h
W-SW
- 17,3 C 31,8 C 23,0 km/h
W-SW
Durchschnitt _ 18,8 C 69 % 1012,5 hPa #14,9 l/m 6,9 km/h W-SW 12,5 C 17,9 C 3,8 km/h
www.sexauwetter.de